sensor_id;sensor_type;location;lat;lon;timestamp;P1;durP1;ratioP1;P2;durP2;ratioP2
59147;SDS011;44930;52.878;6.168;2022-08-01T00:01:23;9.35;;;7.40;;
59147;SDS011;44930;52.878;6.168;2022-08-01T00:03:48;12.77;;;8.10;;
59147;SDS011;44930;52.878;6.168;2022-08-01T00:06:14;11.82;;;6.85;;
59147;SDS011;44930;52.878;6.168;2022-08-01T00:08:39;13.68;;;7.18;;
59147;SDS011;44930;52.878;6.168;2022-08-01T00:11:05;9.50;;;7.38;;
59147;SDS011;44930;52.878;6.168;2022-08-01T00:13:30;9.60;;;6.45;;
59147;SDS011;44930;52.878;6.168;2022-08-01T00:15:56;12.50;;;6.88;;
59147;SDS011;44930;52.878;6.168;2022-08-01T00:18:22;11.90;;;7.25;;
59147;SDS011;44930;52.878;6.168;2022-08-01T00:20:47;11.15;;;8.40;;
59147;SDS011;44930;52.878;6.168;2022-08-01T00:23:13;10.25;;;6.80;;
59147;SDS011;44930;52.878;6.168;2022-08-01T00:25:39;15.55;;;7.63;;
59147;SDS011;44930;52.878;6.168;2022-08-01T00:28:05;15.68;;;7.20;;
59147;SDS011;44930;52.878;6.168;2022-08-01T00:30:33;10.95;;;6.97;;
59147;SDS011;44930;52.878;6.168;2022-08-01T00:32:59;12.23;;;7.00;;
59147;SDS011;44930;52.878;6.168;2022-08-01T00:35:25;11.88;;;7.20;;
59147;SDS011;44930;52.878;6.168;2022-08-01T00:37:51;13.02;;;6.40;;
59147;SDS011;44930;52.878;6.168;2022-08-01T00:40:17;10.02;;;6.47;;
59147;SDS011;44930;52.878;6.168;2022-08-01T00:42:43;12.95;;;6.93;;
59147;SDS011;44930;52.878;6.168;2022-08-01T00:45:08;9.07;;;7.45;;
59147;SDS011;44930;52.878;6.168;2022-08-01T00:47:34;10.50;;;6.55;;
59147;SDS011;44930;52.878;6.168;2022-08-01T00:50:00;11.82;;;6.95;;
59147;SDS011;44930;52.878;6.168;2022-08-01T00:52:28;15.95;;;7.18;;
59147;SDS011;44930;52.878;6.168;2022-08-01T00:54:53;8.57;;;6.95;;
59147;SDS011;44930;52.878;6.168;2022-08-01T00:57:19;12.38;;;6.85;;
59147;SDS011;44930;52.878;6.168;2022-08-01T00:59:45;12.65;;;6.65;;
59147;SDS011;44930;52.878;6.168;2022-08-01T01:02:10;9.00;;;6.50;;
59147;SDS011;44930;52.878;6.168;2022-08-01T01:04:36;8.25;;;6.20;;
59147;SDS011;44930;52.878;6.168;2022-08-01T01:07:09;8.13;;;5.95;;
59147;SDS011;44930;52.878;6.168;2022-08-01T01:09:50;10.63;;;6.90;;
59147;SDS011;44930;52.878;6.168;2022-08-01T01:12:32;11.55;;;6.30;;
59147;SDS011;44930;52.878;6.168;2022-08-01T01:20:17;12.38;;;6.97;;
59147;SDS011;44930;52.878;6.168;2022-08-01T01:22:50;11.23;;;6.38;;
59147;SDS011;44930;52.878;6.168;2022-08-01T01:25:44;11.80;;;6.03;;
59147;SDS011;44930;52.878;6.168;2022-08-01T01:28:14;8.90;;;4.72;;
59147;SDS011;44930;52.878;6.168;2022-08-01T01:30:45;12.38;;;5.45;;
59147;SDS011;44930;52.878;6.168;2022-08-01T01:33:14;7.18;;;5.10;;
59147;SDS011;44930;52.878;6.168;2022-08-01T01:35:42;7.97;;;4.63;;
59147;SDS011;44930;52.878;6.168;2022-08-01T01:38:17;7.15;;;4.40;;
59147;SDS011;44930;52.878;6.168;2022-08-01T01:40:46;6.35;;;4.03;;
59147;SDS011;44930;52.878;6.168;2022-08-01T01:43:14;8.95;;;4.57;;
59147;SDS011;44930;52.878;6.168;2022-08-01T01:45:40;7.63;;;4.60;;
59147;SDS011;44930;52.878;6.168;2022-08-01T01:48:07;6.35;;;4.68;;
59147;SDS011;44930;52.878;6.168;2022-08-01T01:50:35;9.15;;;5.35;;
59147;SDS011;44930;52.878;6.168;2022-08-01T01:53:02;12.32;;;5.07;;
59147;SDS011;44930;52.878;6.168;2022-08-01T01:55:30;11.18;;;5.18;;
59147;SDS011;44930;52.878;6.168;2022-08-01T01:57:57;9.88;;;5.28;;
59147;SDS011;44930;52.878;6.168;2022-08-01T02:00:23;12.88;;;6.03;;
59147;SDS011;44930;52.878;6.168;2022-08-01T02:02:50;11.88;;;5.53;;
59147;SDS011;44930;52.878;6.168;2022-08-01T02:05:18;10.13;;;5.85;;
59147;SDS011;44930;52.878;6.168;2022-08-01T02:07:43;10.85;;;6.03;;
59147;SDS011;44930;52.878;6.168;2022-08-01T02:10:10;9.27;;;5.65;;
59147;SDS011;44930;52.878;6.168;2022-08-01T02:12:38;10.00;;;5.85;;
59147;SDS011;44930;52.878;6.168;2022-08-01T02:15:06;13.50;;;6.40;;
59147;SDS011;44930;52.878;6.168;2022-08-01T02:17:34;8.95;;;5.70;;
59147;SDS011;44930;52.878;6.168;2022-08-01T02:20:05;7.50;;;5.30;;
59147;SDS011;44930;52.878;6.168;2022-08-01T02:22:35;8.25;;;5.30;;
59147;SDS011;44930;52.878;6.168;2022-08-01T02:27:43;10.25;;;3.80;;
59147;SDS011;44930;52.878;6.168;2022-08-01T02:30:17;9.07;;;4.20;;
59147;SDS011;44930;52.878;6.168;2022-08-01T02:32:44;7.38;;;4.35;;
59147;SDS011;44930;52.878;6.168;2022-08-01T02:35:13;6.30;;;2.63;;
59147;SDS011;44930;52.878;6.168;2022-08-01T02:37:45;7.50;;;2.75;;
59147;SDS011;44930;52.878;6.168;2022-08-01T02:40:12;7.40;;;2.70;;
59147;SDS011;44930;52.878;6.168;2022-08-01T02:42:39;4.55;;;2.63;;
59147;SDS011;44930;52.878;6.168;2022-08-01T02:45:08;5.05;;;2.55;;
59147;SDS011;44930;52.878;6.168;2022-08-01T02:47:36;3.63;;;2.50;;
59147;SDS011;44930;52.878;6.168;2022-08-01T02:50:03;7.57;;;2.70;;
59147;SDS011;44930;52.878;6.168;2022-08-01T02:52:29;5.18;;;2.80;;
59147;SDS011;44930;52.878;6.168;2022-08-01T02:54:57;7.57;;;2.55;;
59147;SDS011;44930;52.878;6.168;2022-08-01T02:57:24;4.43;;;2.33;;
59147;SDS011;44930;52.878;6.168;2022-08-01T02:59:52;6.72;;;2.22;;
59147;SDS011;44930;52.878;6.168;2022-08-01T03:02:20;7.88;;;2.70;;
59147;SDS011;44930;52.878;6.168;2022-08-01T03:04:47;6.38;;;2.92;;
59147;SDS011;44930;52.878;6.168;2022-08-01T03:07:13;5.70;;;2.40;;
59147;SDS011;44930;52.878;6.168;2022-08-01T03:09:42;6.38;;;2.92;;
59147;SDS011;44930;52.878;6.168;2022-08-01T03:12:14;6.75;;;2.85;;
59147;SDS011;44930;52.878;6.168;2022-08-01T03:14:43;4.93;;;2.88;;
59147;SDS011;44930;52.878;6.168;2022-08-01T03:17:09;4.47;;;2.60;;
59147;SDS011;44930;52.878;6.168;2022-08-01T03:19:36;3.85;;;2.50;;
59147;SDS011;44930;52.878;6.168;2022-08-01T03:22:05;5.40;;;2.95;;
59147;SDS011;44930;52.878;6.168;2022-08-01T03:24:33;5.00;;;2.63;;
59147;SDS011;44930;52.878;6.168;2022-08-01T03:27:00;10.00;;;2.60;;
59147;SDS011;44930;52.878;6.168;2022-08-01T03:29:27;8.80;;;4.30;;
59147;SDS011;44930;52.878;6.168;2022-08-01T03:31:54;8.20;;;2.70;;
59147;SDS011;44930;52.878;6.168;2022-08-01T03:34:21;5.38;;;2.45;;
59147;SDS011;44930;52.878;6.168;2022-08-01T03:36:48;5.50;;;2.55;;
59147;SDS011;44930;52.878;6.168;2022-08-01T03:39:18;7.60;;;2.78;;
59147;SDS011;44930;52.878;6.168;2022-08-01T03:41:50;6.53;;;2.67;;
59147;SDS011;44930;52.878;6.168;2022-08-01T03:44:20;10.10;;;2.97;;
59147;SDS011;44930;52.878;6.168;2022-08-01T03:46:52;4.28;;;2.20;;
59147;SDS011;44930;52.878;6.168;2022-08-01T03:49:23;5.25;;;2.78;;
59147;SDS011;44930;52.878;6.168;2022-08-01T03:51:54;5.07;;;2.60;;
59147;SDS011;44930;52.878;6.168;2022-08-01T03:54:23;12.00;;;2.80;;
59147;SDS011;44930;52.878;6.168;2022-08-01T03:56:50;10.38;;;3.15;;
59147;SDS011;44930;52.878;6.168;2022-08-01T03:59:16;6.68;;;2.47;;
59147;SDS011;44930;52.878;6.168;2022-08-01T04:01:44;5.53;;;2.80;;
59147;SDS011;44930;52.878;6.168;2022-08-01T04:04:10;8.02;;;3.15;;
59147;SDS011;44930;52.878;6.168;2022-08-01T04:06:40;10.65;;;2.88;;
59147;SDS011;44930;52.878;6.168;2022-08-01T04:09:08;10.48;;;3.28;;
59147;SDS011;44930;52.878;6.168;2022-08-01T04:11:34;6.70;;;2.85;;
59147;SDS011;44930;52.878;6.168;2022-08-01T04:14:00;8.63;;;3.30;;
59147;SDS011;44930;52.878;6.168;2022-08-01T04:16:26;7.90;;;3.25;;
59147;SDS011;44930;52.878;6.168;2022-08-01T04:18:52;7.45;;;3.40;;
59147;SDS011;44930;52.878;6.168;2022-08-01T04:21:18;10.82;;;3.63;;
59147;SDS011;44930;52.878;6.168;2022-08-01T04:23:48;7.57;;;3.53;;
59147;SDS011;44930;52.878;6.168;2022-08-01T04:26:16;8.10;;;3.35;;
59147;SDS011;44930;52.878;6.168;2022-08-01T04:28:43;9.15;;;3.88;;
59147;SDS011;44930;52.878;6.168;2022-08-01T04:31:11;8.65;;;3.65;;
59147;SDS011;44930;52.878;6.168;2022-08-01T04:33:40;12.13;;;3.85;;
59147;SDS011;44930;52.878;6.168;2022-08-01T04:36:11;8.52;;;4.30;;
59147;SDS011;44930;52.878;6.168;2022-08-01T04:38:40;13.75;;;4.05;;
59147;SDS011;44930;52.878;6.168;2022-08-01T04:41:07;12.15;;;3.97;;
59147;SDS011;44930;52.878;6.168;2022-08-01T04:43:36;16.10;;;4.38;;
59147;SDS011;44930;52.878;6.168;2022-08-01T04:46:02;17.40;;;4.82;;
59147;SDS011;44930;52.878;6.168;2022-08-01T04:48:29;14.73;;;4.20;;
59147;SDS011;44930;52.878;6.168;2022-08-01T04:50:56;12.35;;;4.03;;
59147;SDS011;44930;52.878;6.168;2022-08-01T04:53:22;12.07;;;3.50;;
59147;SDS011;44930;52.878;6.168;2022-08-01T04:55:47;11.38;;;4.10;;
59147;SDS011;44930;52.878;6.168;2022-08-01T04:58:16;13.48;;;4.28;;
59147;SDS011;44930;52.878;6.168;2022-08-01T05:00:42;11.88;;;3.25;;
59147;SDS011;44930;52.878;6.168;2022-08-01T05:03:07;15.60;;;4.00;;
59147;SDS011;44930;52.878;6.168;2022-08-01T05:05:33;17.50;;;4.50;;
59147;SDS011;44930;52.878;6.168;2022-08-01T05:07:59;19.08;;;4.03;;
59147;SDS011;44930;52.878;6.168;2022-08-01T05:10:25;14.73;;;4.45;;
59147;SDS011;44930;52.878;6.168;2022-08-01T05:12:51;15.02;;;3.67;;
59147;SDS011;44930;52.878;6.168;2022-08-01T05:15:17;19.02;;;6.25;;
59147;SDS011;44930;52.878;6.168;2022-08-01T05:17:43;10.07;;;3.70;;
59147;SDS011;44930;52.878;6.168;2022-08-01T05:20:08;16.05;;;4.63;;
59147;SDS011;44930;52.878;6.168;2022-08-01T05:22:35;16.88;;;3.92;;
59147;SDS011;44930;52.878;6.168;2022-08-01T05:25:00;22.40;;;4.97;;
59147;SDS011;44930;52.878;6.168;2022-08-01T05:27:26;18.40;;;3.53;;
59147;SDS011;44930;52.878;6.168;2022-08-01T05:29:51;14.27;;;3.50;;
59147;SDS011;44930;52.878;6.168;2022-08-01T05:32:17;18.52;;;4.15;;
59147;SDS011;44930;52.878;6.168;2022-08-01T05:34:43;16.95;;;4.07;;
59147;SDS011;44930;52.878;6.168;2022-08-01T05:37:08;16.13;;;3.97;;
59147;SDS011;44930;52.878;6.168;2022-08-01T05:39:34;14.73;;;4.18;;
59147;SDS011;44930;52.878;6.168;2022-08-01T05:42:00;16.17;;;4.22;;
59147;SDS011;44930;52.878;6.168;2022-08-01T05:44:26;13.57;;;3.80;;
59147;SDS011;44930;52.878;6.168;2022-08-01T05:46:51;13.50;;;3.97;;
59147;SDS011;44930;52.878;6.168;2022-08-01T05:49:17;25.20;;;5.40;;
59147;SDS011;44930;52.878;6.168;2022-08-01T05:51:43;15.80;;;3.75;;
59147;SDS011;44930;52.878;6.168;2022-08-01T05:54:08;20.80;;;4.57;;
59147;SDS011;44930;52.878;6.168;2022-08-01T05:56:34;18.23;;;3.70;;
59147;SDS011;44930;52.878;6.168;2022-08-01T05:58:59;19.42;;;3.78;;
59147;SDS011;44930;52.878;6.168;2022-08-01T06:01:25;17.75;;;4.25;;
59147;SDS011;44930;52.878;6.168;2022-08-01T06:03:51;21.05;;;3.58;;
59147;SDS011;44930;52.878;6.168;2022-08-01T06:06:19;18.35;;;3.45;;
59147;SDS011;44930;52.878;6.168;2022-08-01T06:08:45;22.15;;;4.55;;
59147;SDS011;44930;52.878;6.168;2022-08-01T06:11:10;21.17;;;3.92;;
59147;SDS011;44930;52.878;6.168;2022-08-01T06:13:36;14.57;;;3.53;;
59147;SDS011;44930;52.878;6.168;2022-08-01T06:16:01;19.80;;;3.55;;
59147;SDS011;44930;52.878;6.168;2022-08-01T06:18:27;16.35;;;3.67;;
59147;SDS011;44930;52.878;6.168;2022-08-01T06:20:52;17.25;;;3.50;;
59147;SDS011;44930;52.878;6.168;2022-08-01T06:23:19;21.63;;;5.47;;
59147;SDS011;44930;52.878;6.168;2022-08-01T06:25:45;17.65;;;3.42;;
59147;SDS011;44930;52.878;6.168;2022-08-01T06:28:11;15.85;;;3.45;;
59147;SDS011;44930;52.878;6.168;2022-08-01T06:30:36;18.63;;;4.68;;
59147;SDS011;44930;52.878;6.168;2022-08-01T06:33:02;22.15;;;3.92;;
59147;SDS011;44930;52.878;6.168;2022-08-01T06:35:28;22.08;;;3.97;;
59147;SDS011;44930;52.878;6.168;2022-08-01T06:37:54;19.95;;;3.60;;
59147;SDS011;44930;52.878;6.168;2022-08-01T06:40:21;16.58;;;3.53;;
59147;SDS011;44930;52.878;6.168;2022-08-01T06:42:46;19.30;;;3.58;;
59147;SDS011;44930;52.878;6.168;2022-08-01T06:45:13;16.15;;;3.58;;
59147;SDS011;44930;52.878;6.168;2022-08-01T06:47:39;13.77;;;3.45;;
59147;SDS011;44930;52.878;6.168;2022-08-01T06:50:06;18.92;;;3.45;;
59147;SDS011;44930;52.878;6.168;2022-08-01T06:52:33;15.80;;;4.65;;
59147;SDS011;44930;52.878;6.168;2022-08-01T06:54:59;15.23;;;3.38;;
59147;SDS011;44930;52.878;6.168;2022-08-01T06:57:24;15.85;;;3.17;;
59147;SDS011;44930;52.878;6.168;2022-08-01T06:59:50;28.98;;;3.30;;
59147;SDS011;44930;52.878;6.168;2022-08-01T07:02:16;14.98;;;3.55;;
59147;SDS011;44930;52.878;6.168;2022-08-01T07:04:42;15.10;;;2.95;;
59147;SDS011;44930;52.878;6.168;2022-08-01T07:07:07;15.73;;;4.00;;
59147;SDS011;44930;52.878;6.168;2022-08-01T07:09:33;16.23;;;3.25;;
59147;SDS011;44930;52.878;6.168;2022-08-01T07:11:59;10.82;;;3.47;;
59147;SDS011;44930;52.878;6.168;2022-08-01T07:14:24;19.92;;;3.55;;
59147;SDS011;44930;52.878;6.168;2022-08-01T07:16:50;22.85;;;3.63;;
59147;SDS011;44930;52.878;6.168;2022-08-01T07:19:16;14.90;;;3.55;;
59147;SDS011;44930;52.878;6.168;2022-08-01T07:21:42;19.35;;;3.72;;
59147;SDS011;44930;52.878;6.168;2022-08-01T07:24:09;17.13;;;3.35;;
59147;SDS011;44930;52.878;6.168;2022-08-01T07:26:39;13.88;;;2.92;;
59147;SDS011;44930;52.878;6.168;2022-08-01T07:29:05;13.02;;;3.22;;
59147;SDS011;44930;52.878;6.168;2022-08-01T07:31:31;18.55;;;3.60;;
59147;SDS011;44930;52.878;6.168;2022-08-01T07:33:56;20.70;;;5.20;;
59147;SDS011;44930;52.878;6.168;2022-08-01T07:36:22;15.60;;;3.70;;
59147;SDS011;44930;52.878;6.168;2022-08-01T07:38:47;18.75;;;3.30;;
59147;SDS011;44930;52.878;6.168;2022-08-01T07:41:13;13.15;;;3.03;;
59147;SDS011;44930;52.878;6.168;2022-08-01T07:43:41;19.45;;;3.58;;
59147;SDS011;44930;52.878;6.168;2022-08-01T07:46:06;12.85;;;3.08;;
59147;SDS011;44930;52.878;6.168;2022-08-01T07:48:32;19.65;;;7.07;;
59147;SDS011;44930;52.878;6.168;2022-08-01T07:50:58;15.18;;;3.88;;
59147;SDS011;44930;52.878;6.168;2022-08-01T07:53:24;18.67;;;3.50;;
59147;SDS011;44930;52.878;6.168;2022-08-01T07:55:50;12.95;;;3.47;;
59147;SDS011;44930;52.878;6.168;2022-08-01T07:58:16;14.95;;;3.20;;
59147;SDS011;44930;52.878;6.168;2022-08-01T08:00:42;15.13;;;3.30;;
59147;SDS011;44930;52.878;6.168;2022-08-01T08:03:07;17.00;;;3.33;;
59147;SDS011;44930;52.878;6.168;2022-08-01T08:05:33;17.83;;;3.95;;
59147;SDS011;44930;52.878;6.168;2022-08-01T08:08:04;15.55;;;3.35;;
59147;SDS011;44930;52.878;6.168;2022-08-01T08:10:30;18.60;;;3.05;;
59147;SDS011;44930;52.878;6.168;2022-08-01T08:12:56;15.48;;;3.40;;
59147;SDS011;44930;52.878;6.168;2022-08-01T08:15:21;14.35;;;2.92;;
59147;SDS011;44930;52.878;6.168;2022-08-01T08:17:47;12.60;;;3.92;;
59147;SDS011;44930;52.878;6.168;2022-08-01T08:20:12;15.05;;;2.78;;
59147;SDS011;44930;52.878;6.168;2022-08-01T08:22:38;13.82;;;2.88;;
59147;SDS011;44930;52.878;6.168;2022-08-01T08:25:04;14.52;;;3.28;;
59147;SDS011;44930;52.878;6.168;2022-08-01T08:27:31;15.23;;;2.72;;
59147;SDS011;44930;52.878;6.168;2022-08-01T08:29:57;11.30;;;2.50;;
59147;SDS011;44930;52.878;6.168;2022-08-01T08:32:22;14.85;;;3.08;;
59147;SDS011;44930;52.878;6.168;2022-08-01T08:34:48;11.02;;;2.95;;
59147;SDS011;44930;52.878;6.168;2022-08-01T08:37:13;15.93;;;3.50;;
59147;SDS011;44930;52.878;6.168;2022-08-01T08:39:39;14.63;;;2.75;;
59147;SDS011;44930;52.878;6.168;2022-08-01T08:42:06;14.52;;;3.08;;
59147;SDS011;44930;52.878;6.168;2022-08-01T08:44:32;12.20;;;2.80;;
59147;SDS011;44930;52.878;6.168;2022-08-01T08:46:58;14.93;;;2.58;;
59147;SDS011;44930;52.878;6.168;2022-08-01T08:49:27;11.48;;;2.97;;
59147;SDS011;44930;52.878;6.168;2022-08-01T08:51:56;9.55;;;2.80;;
59147;SDS011;44930;52.878;6.168;2022-08-01T08:54:24;11.02;;;1.98;;
59147;SDS011;44930;52.878;6.168;2022-08-01T08:56:53;13.32;;;2.40;;
59147;SDS011;44930;52.878;6.168;2022-08-01T08:59:19;13.23;;;2.65;;
59147;SDS011;44930;52.878;6.168;2022-08-01T09:01:46;9.07;;;2.28;;
59147;SDS011;44930;52.878;6.168;2022-08-01T09:04:12;12.02;;;2.53;;
59147;SDS011;44930;52.878;6.168;2022-08-01T09:06:38;14.70;;;2.28;;
59147;SDS011;44930;52.878;6.168;2022-08-01T09:09:04;10.48;;;2.28;;
59147;SDS011;44930;52.878;6.168;2022-08-01T09:11:31;11.20;;;3.60;;
59147;SDS011;44930;52.878;6.168;2022-08-01T09:16:34;12.50;;;2.30;;
59147;SDS011;44930;52.878;6.168;2022-08-01T09:19:08;6.93;;;2.50;;
59147;SDS011;44930;52.878;6.168;2022-08-01T09:21:38;11.48;;;2.10;;
59147;SDS011;44930;52.878;6.168;2022-08-01T09:24:15;11.45;;;2.20;;
59147;SDS011;44930;52.878;6.168;2022-08-01T09:26:41;12.77;;;2.17;;
59147;SDS011;44930;52.878;6.168;2022-08-01T09:29:08;10.30;;;3.03;;
59147;SDS011;44930;52.878;6.168;2022-08-01T09:31:42;7.68;;;1.80;;
59147;SDS011;44930;52.878;6.168;2022-08-01T09:34:09;11.02;;;2.33;;
59147;SDS011;44930;52.878;6.168;2022-08-01T09:39:20;12.88;;;2.28;;
59147;SDS011;44930;52.878;6.168;2022-08-01T09:41:48;9.75;;;1.92;;
59147;SDS011;44930;52.878;6.168;2022-08-01T09:44:14;9.85;;;2.10;;
59147;SDS011;44930;52.878;6.168;2022-08-01T09:46:52;5.95;;;1.60;;
59147;SDS011;44930;52.878;6.168;2022-08-01T09:49:32;10.85;;;2.15;;
59147;SDS011;44930;52.878;6.168;2022-08-01T09:51:59;5.22;;;1.80;;
59147;SDS011;44930;52.878;6.168;2022-08-01T09:54:39;7.40;;;1.75;;
59147;SDS011;44930;52.878;6.168;2022-08-01T09:57:12;6.95;;;1.65;;
59147;SDS011;44930;52.878;6.168;2022-08-01T09:59:40;7.50;;;2.15;;
59147;SDS011;44930;52.878;6.168;2022-08-01T10:02:11;10.35;;;2.42;;
59147;SDS011;44930;52.878;6.168;2022-08-01T10:04:45;13.57;;;2.33;;
59147;SDS011;44930;52.878;6.168;2022-08-01T10:07:14;11.35;;;1.95;;
59147;SDS011;44930;52.878;6.168;2022-08-01T10:09:43;7.25;;;2.35;;
59147;SDS011;44930;52.878;6.168;2022-08-01T10:12:10;11.43;;;2.13;;
59147;SDS011;44930;52.878;6.168;2022-08-01T10:14:37;9.88;;;1.70;;
59147;SDS011;44930;52.878;6.168;2022-08-01T10:17:05;11.07;;;1.80;;
59147;SDS011;44930;52.878;6.168;2022-08-01T10:19:36;9.40;;;1.92;;
59147;SDS011;44930;52.878;6.168;2022-08-01T10:22:07;10.05;;;1.88;;
59147;SDS011;44930;52.878;6.168;2022-08-01T10:24:35;12.73;;;2.10;;
59147;SDS011;44930;52.878;6.168;2022-08-01T10:27:04;8.48;;;1.83;;
59147;SDS011;44930;52.878;6.168;2022-08-01T10:29:34;10.80;;;2.25;;
59147;SDS011;44930;52.878;6.168;2022-08-01T10:32:05;7.97;;;1.60;;
59147;SDS011;44930;52.878;6.168;2022-08-01T10:34:31;7.22;;;1.42;;
59147;SDS011;44930;52.878;6.168;2022-08-01T10:36:59;9.07;;;1.65;;
59147;SDS011;44930;52.878;6.168;2022-08-01T10:39:25;6.10;;;1.90;;
59147;SDS011;44930;52.878;6.168;2022-08-01T10:41:53;8.88;;;1.63;;
59147;SDS011;44930;52.878;6.168;2022-08-01T10:44:20;10.85;;;1.63;;
59147;SDS011;44930;52.878;6.168;2022-08-01T10:46:47;6.82;;;1.85;;
59147;SDS011;44930;52.878;6.168;2022-08-01T10:49:15;11.23;;;2.03;;
59147;SDS011;44930;52.878;6.168;2022-08-01T10:51:44;6.03;;;1.80;;
59147;SDS011;44930;52.878;6.168;2022-08-01T10:54:10;7.10;;;2.15;;
59147;SDS011;44930;52.878;6.168;2022-08-01T10:56:48;10.52;;;2.17;;
59147;SDS011;44930;52.878;6.168;2022-08-01T10:59:22;8.85;;;1.90;;
59147;SDS011;44930;52.878;6.168;2022-08-01T11:01:56;8.37;;;1.80;;
59147;SDS011;44930;52.878;6.168;2022-08-01T11:04:33;10.68;;;2.10;;
59147;SDS011;44930;52.878;6.168;2022-08-01T11:07:07;12.90;;;1.60;;
59147;SDS011;44930;52.878;6.168;2022-08-01T11:09:40;7.03;;;1.63;;
59147;SDS011;44930;52.878;6.168;2022-08-01T11:12:11;13.10;;;2.22;;
59147;SDS011;44930;52.878;6.168;2022-08-01T11:17:39;9.43;;;1.83;;
59147;SDS011;44930;52.878;6.168;2022-08-01T11:20:21;9.32;;;1.90;;
59147;SDS011;44930;52.878;6.168;2022-08-01T11:26:11;7.20;;;1.60;;
59147;SDS011;44930;52.878;6.168;2022-08-01T11:30:42;8.70;;;1.30;;
59147;SDS011;44930;52.878;6.168;2022-08-01T11:33:12;7.95;;;1.75;;
59147;SDS011;44930;52.878;6.168;2022-08-01T11:38:37;5.70;;;1.48;;
59147;SDS011;44930;52.878;6.168;2022-08-01T11:43:59;6.85;;;1.30;;
59147;SDS011;44930;52.878;6.168;2022-08-01T11:49:31;6.30;;;1.75;;
59147;SDS011;44930;52.878;6.168;2022-08-01T11:54:37;11.05;;;2.60;;
59147;SDS011;44930;52.878;6.168;2022-08-01T11:57:06;6.38;;;1.98;;
59147;SDS011;44930;52.878;6.168;2022-08-01T11:59:40;11.38;;;1.52;;
59147;SDS011;44930;52.878;6.168;2022-08-01T12:02:19;8.23;;;2.88;;
59147;SDS011;44930;52.878;6.168;2022-08-01T12:04:58;5.93;;;1.55;;
59147;SDS011;44930;52.878;6.168;2022-08-01T12:07:27;5.20;;;1.30;;
59147;SDS011;44930;52.878;6.168;2022-08-01T12:09:58;3.90;;;1.15;;
59147;SDS011;44930;52.878;6.168;2022-08-01T12:12:44;5.00;;;0.98;;
59147;SDS011;44930;52.878;6.168;2022-08-01T12:15:11;7.03;;;1.80;;
59147;SDS011;44930;52.878;6.168;2022-08-01T12:17:48;6.72;;;1.85;;
59147;SDS011;44930;52.878;6.168;2022-08-01T12:20:16;5.55;;;1.30;;
59147;SDS011;44930;52.878;6.168;2022-08-01T12:22:45;8.35;;;2.00;;
59147;SDS011;44930;52.878;6.168;2022-08-01T12:25:12;7.35;;;1.70;;
59147;SDS011;44930;52.878;6.168;2022-08-01T12:27:42;6.72;;;1.42;;
59147;SDS011;44930;52.878;6.168;2022-08-01T12:30:13;4.57;;;1.20;;
59147;SDS011;44930;52.878;6.168;2022-08-01T12:32:41;6.30;;;1.27;;
59147;SDS011;44930;52.878;6.168;2022-08-01T12:35:09;11.98;;;1.92;;
59147;SDS011;44930;52.878;6.168;2022-08-01T12:37:46;4.70;;;1.33;;
59147;SDS011;44930;52.878;6.168;2022-08-01T12:40:14;5.20;;;1.20;;
59147;SDS011;44930;52.878;6.168;2022-08-01T12:42:43;6.47;;;1.50;;
59147;SDS011;44930;52.878;6.168;2022-08-01T12:45:12;7.75;;;1.50;;
59147;SDS011;44930;52.878;6.168;2022-08-01T12:47:40;5.85;;;1.70;;
59147;SDS011;44930;52.878;6.168;2022-08-01T12:50:08;9.68;;;1.95;;
59147;SDS011;44930;52.878;6.168;2022-08-01T12:52:38;6.07;;;1.58;;
59147;SDS011;44930;52.878;6.168;2022-08-01T12:55:25;6.15;;;1.35;;
59147;SDS011;44930;52.878;6.168;2022-08-01T12:58:12;6.10;;;1.20;;
59147;SDS011;44930;52.878;6.168;2022-08-01T13:00:38;8.18;;;1.30;;
59147;SDS011;44930;52.878;6.168;2022-08-01T13:03:13;5.80;;;1.00;;
59147;SDS011;44930;52.878;6.168;2022-08-01T13:08:09;7.57;;;1.45;;
59147;SDS011;44930;52.878;6.168;2022-08-01T13:10:36;5.57;;;1.55;;
59147;SDS011;44930;52.878;6.168;2022-08-01T13:13:01;6.95;;;1.45;;
59147;SDS011;44930;52.878;6.168;2022-08-01T13:15:32;7.53;;;1.13;;
59147;SDS011;44930;52.878;6.168;2022-08-01T13:18:00;5.05;;;1.48;;
59147;SDS011;44930;52.878;6.168;2022-08-01T13:20:46;6.43;;;1.77;;
59147;SDS011;44930;52.878;6.168;2022-08-01T13:23:18;6.70;;;2.13;;
59147;SDS011;44930;52.878;6.168;2022-08-01T13:25:48;3.92;;;1.00;;
59147;SDS011;44930;52.878;6.168;2022-08-01T13:28:18;6.47;;;0.98;;
59147;SDS011;44930;52.878;6.168;2022-08-01T13:31:01;4.38;;;1.42;;
59147;SDS011;44930;52.878;6.168;2022-08-01T13:36:07;4.85;;;1.38;;
59147;SDS011;44930;52.878;6.168;2022-08-01T13:38:33;8.32;;;1.55;;
59147;SDS011;44930;52.878;6.168;2022-08-01T13:41:17;7.53;;;1.40;;
59147;SDS011;44930;52.878;6.168;2022-08-01T13:43:43;5.63;;;1.20;;
59147;SDS011;44930;52.878;6.168;2022-08-01T13:46:08;6.53;;;1.58;;
59147;SDS011;44930;52.878;6.168;2022-08-01T13:48:34;5.20;;;1.42;;
59147;SDS011;44930;52.878;6.168;2022-08-01T13:50:59;5.25;;;1.10;;
59147;SDS011;44930;52.878;6.168;2022-08-01T13:53:25;5.53;;;1.42;;
59147;SDS011;44930;52.878;6.168;2022-08-01T13:55:51;6.72;;;1.25;;
59147;SDS011;44930;52.878;6.168;2022-08-01T13:58:16;4.88;;;1.02;;
59147;SDS011;44930;52.878;6.168;2022-08-01T14:00:42;8.00;;;1.55;;
59147;SDS011;44930;52.878;6.168;2022-08-01T14:03:08;4.82;;;1.60;;
59147;SDS011;44930;52.878;6.168;2022-08-01T14:05:35;4.68;;;1.17;;
59147;SDS011;44930;52.878;6.168;2022-08-01T14:08:01;5.25;;;1.70;;
59147;SDS011;44930;52.878;6.168;2022-08-01T14:10:27;3.90;;;0.98;;
59147;SDS011;44930;52.878;6.168;2022-08-01T14:12:52;6.60;;;1.38;;
59147;SDS011;44930;52.878;6.168;2022-08-01T14:15:18;5.70;;;0.98;;
59147;SDS011;44930;52.878;6.168;2022-08-01T14:17:44;8.32;;;1.40;;
59147;SDS011;44930;52.878;6.168;2022-08-01T14:20:09;11.38;;;1.48;;
59147;SDS011;44930;52.878;6.168;2022-08-01T14:22:35;8.35;;;1.42;;
59147;SDS011;44930;52.878;6.168;2022-08-01T14:25:01;6.90;;;1.45;;
59147;SDS011;44930;52.878;6.168;2022-08-01T14:27:27;6.28;;;1.80;;
59147;SDS011;44930;52.878;6.168;2022-08-01T14:29:55;6.40;;;1.77;;
59147;SDS011;44930;52.878;6.168;2022-08-01T14:32:21;4.63;;;0.95;;
59147;SDS011;44930;52.878;6.168;2022-08-01T14:34:47;5.75;;;1.10;;
59147;SDS011;44930;52.878;6.168;2022-08-01T14:37:12;6.22;;;1.35;;
59147;SDS011;44930;52.878;6.168;2022-08-01T14:39:38;8.02;;;1.25;;
59147;SDS011;44930;52.878;6.168;2022-08-01T14:42:04;6.22;;;1.17;;
59147;SDS011;44930;52.878;6.168;2022-08-01T14:44:29;3.70;;;1.05;;
59147;SDS011;44930;52.878;6.168;2022-08-01T14:46:55;4.25;;;1.60;;
59147;SDS011;44930;52.878;6.168;2022-08-01T14:49:20;6.28;;;1.27;;
59147;SDS011;44930;52.878;6.168;2022-08-01T14:51:46;2.42;;;0.85;;
59147;SDS011;44930;52.878;6.168;2022-08-01T14:54:11;2.08;;;0.95;;
59147;SDS011;44930;52.878;6.168;2022-08-01T14:56:38;5.35;;;1.48;;
59147;SDS011;44930;52.878;6.168;2022-08-01T14:59:03;8.10;;;1.00;;
59147;SDS011;44930;52.878;6.168;2022-08-01T15:01:29;5.55;;;1.25;;
59147;SDS011;44930;52.878;6.168;2022-08-01T15:03:54;5.70;;;1.00;;
59147;SDS011;44930;52.878;6.168;2022-08-01T15:06:20;3.70;;;0.70;;
59147;SDS011;44930;52.878;6.168;2022-08-01T15:08:46;4.50;;;1.00;;
59147;SDS011;44930;52.878;6.168;2022-08-01T15:11:12;5.25;;;1.20;;
59147;SDS011;44930;52.878;6.168;2022-08-01T15:13:37;7.80;;;1.65;;
59147;SDS011;44930;52.878;6.168;2022-08-01T15:16:03;5.90;;;1.33;;
59147;SDS011;44930;52.878;6.168;2022-08-01T15:18:29;5.07;;;0.90;;
59147;SDS011;44930;52.878;6.168;2022-08-01T15:20:55;5.07;;;1.02;;
59147;SDS011;44930;52.878;6.168;2022-08-01T15:23:22;5.38;;;0.93;;